createdAt,value
2019-05-15T00:02:24.764Z,32.37
2019-05-15T00:04:59.616Z,32.57
2019-05-15T00:07:34.405Z,32.27
2019-05-15T00:10:09.365Z,32.80
2019-05-15T00:12:45.355Z,31.77
2019-05-15T00:15:20.161Z,31.97
2019-05-15T00:17:54.918Z,32.53
2019-05-15T00:20:29.784Z,32.60
2019-05-15T00:23:04.740Z,32.10
2019-05-15T00:25:39.711Z,32.47
2019-05-15T00:28:14.688Z,32.93
2019-05-15T00:30:49.520Z,32.27
2019-05-15T00:33:24.305Z,32.10
2019-05-15T00:35:59.239Z,31.80
2019-05-15T00:38:34.005Z,32.07
2019-05-15T00:41:09.625Z,33.33
2019-05-15T00:43:44.486Z,32.07
2019-05-15T00:46:19.334Z,32.60
2019-05-15T00:48:54.164Z,31.70
2019-05-15T00:51:29.010Z,31.57
2019-05-15T00:54:03.793Z,31.90
2019-05-15T00:56:39.107Z,32.63
2019-05-15T00:59:24.033Z,32.23
2019-05-15T01:01:50.777Z,32.00
2019-05-15T01:04:25.545Z,31.83
2019-05-15T01:07:01.283Z,33.03
2019-05-15T01:09:38.300Z,31.97
2019-05-15T01:12:18.846Z,32.77
2019-05-15T01:14:53.664Z,32.77
2019-05-15T01:17:29.040Z,32.17
2019-05-15T01:20:04.140Z,32.33
2019-05-15T01:22:39.618Z,32.67
2019-05-15T01:25:14.669Z,31.83
2019-05-15T01:27:49.528Z,32.20
2019-05-15T01:30:24.434Z,32.40
2019-05-15T01:32:59.293Z,32.53
2019-05-15T01:35:34.173Z,32.43
2019-05-15T01:38:09.049Z,32.53
2019-05-15T01:40:44.051Z,32.57
2019-05-15T01:43:18.992Z,32.13
2019-05-15T01:45:53.731Z,32.90
2019-05-15T01:48:28.598Z,32.07
2019-05-15T01:51:03.348Z,32.80
2019-05-15T01:53:38.606Z,32.50
2019-05-15T01:56:13.709Z,32.43
2019-05-15T01:58:48.790Z,32.87
2019-05-15T02:01:24.848Z,32.00
2019-05-15T02:03:59.614Z,32.90
2019-05-15T02:06:34.516Z,32.47
2019-05-15T02:09:09.447Z,32.93
2019-05-15T02:11:44.215Z,32.17
2019-05-15T02:14:19.190Z,32.00
2019-05-15T02:16:54.188Z,32.23
2019-05-15T02:19:40.872Z,32.80
2019-05-15T02:22:15.772Z,31.80
2019-05-15T02:24:50.527Z,32.73
2019-05-15T02:27:25.382Z,32.87
2019-05-15T02:30:16.741Z,35.33
2019-05-15T02:32:39.477Z,32.43
2019-05-15T02:35:13.641Z,32.60
2019-05-15T02:37:49.047Z,32.40
2019-05-15T02:40:24.100Z,32.90
2019-05-15T02:42:59.243Z,32.20
2019-05-15T02:45:40.540Z,32.60
2019-05-15T02:48:10.673Z,31.87
2019-05-15T02:51:01.812Z,32.60
2019-05-15T02:53:39.608Z,32.07
2019-05-15T02:56:13.962Z,31.00
2019-05-15T02:58:49.262Z,32.03
2019-05-15T03:01:25.182Z,31.87
2019-05-15T03:04:00.092Z,32.20
2019-05-15T03:06:34.974Z,32.13
2019-05-15T03:09:09.871Z,31.93
2019-05-15T03:11:44.773Z,32.60
2019-05-15T03:14:21.520Z,32.20
2019-05-15T03:16:59.569Z,32.93
2019-05-15T03:19:34.626Z,33.23
2019-05-15T03:22:10.066Z,32.63
2019-05-15T03:24:45.020Z,32.27
2019-05-15T03:27:20.036Z,32.47
2019-05-15T03:29:59.278Z,32.00
2019-05-15T03:32:42.806Z,31.83
2019-05-15T03:35:14.498Z,32.03
2019-05-15T03:37:49.019Z,32.33
2019-05-15T03:40:22.248Z,32.57
2019-05-15T03:42:59.277Z,31.87
2019-05-15T03:45:33.672Z,32.13
2019-05-15T03:48:09.361Z,32.87
2019-05-15T03:50:45.587Z,32.30
2019-05-15T03:53:20.495Z,32.50
2019-05-15T03:55:58.657Z,32.80
2019-05-15T03:58:31.858Z,32.97
2019-05-15T04:01:27.732Z,32.17
2019-05-15T04:03:43.199Z,31.87
2019-05-15T04:06:19.339Z,32.03
2019-05-15T04:08:54.468Z,32.07
2019-05-15T04:11:29.726Z,32.17
2019-05-15T04:14:04.700Z,32.43
2019-05-15T04:16:39.661Z,32.50
2019-05-15T04:19:14.601Z,32.20
2019-05-15T04:21:49.770Z,32.50
2019-05-15T04:24:29.864Z,32.17
2019-05-15T04:27:07.173Z,33.17
2019-05-15T04:29:41.437Z,32.47
2019-05-15T04:32:19.727Z,32.23
2019-05-15T04:34:53.807Z,33.03
2019-05-15T04:37:29.923Z,33.00
2019-05-15T04:40:05.415Z,33.03
2019-05-15T04:42:40.375Z,32.67
2019-05-15T04:45:15.348Z,32.77
2019-05-15T04:47:51.219Z,32.43
2019-05-15T04:50:28.646Z,32.70
2019-05-15T04:53:02.601Z,33.30
2019-05-15T04:55:40.453Z,32.83
2019-05-15T04:58:14.237Z,33.43
2019-05-15T05:00:50.847Z,33.23
2019-05-15T05:03:28.922Z,32.80
2019-05-15T05:06:02.580Z,32.60
2019-05-15T05:08:39.828Z,32.33
2019-05-15T05:11:14.152Z,33.93
2019-05-15T05:13:49.043Z,33.37
2019-05-15T05:16:23.951Z,34.40
2019-05-15T05:18:59.517Z,33.13
2019-05-15T05:21:34.391Z,33.73
2019-05-15T05:24:09.218Z,33.00
2019-05-15T05:26:44.043Z,33.37
2019-05-15T05:29:18.916Z,33.30
2019-05-15T05:31:53.734Z,34.07
2019-05-15T05:34:28.549Z,33.77
2019-05-15T05:37:03.363Z,34.17
2019-05-15T05:39:39.454Z,34.17
2019-05-15T05:42:14.542Z,33.50
2019-05-15T05:44:49.280Z,33.40
2019-05-15T05:47:24.303Z,33.77
2019-05-15T05:49:59.034Z,33.43
2019-05-15T05:52:39.341Z,33.30
2019-05-15T05:55:15.311Z,32.90
2019-05-15T05:57:50.167Z,33.77
2019-05-15T06:00:33.455Z,33.73
2019-05-15T06:03:08.887Z,33.53
2019-05-15T06:05:45.195Z,33.30
2019-05-15T06:08:20.307Z,32.87
2019-05-15T06:10:55.283Z,33.37
2019-05-15T06:13:30.125Z,33.27
2019-05-15T06:16:05.043Z,33.60
2019-05-15T06:18:39.788Z,33.67
2019-05-15T06:21:14.733Z,33.60
2019-05-15T06:23:55.661Z,33.50
2019-05-15T06:26:28.242Z,33.77
2019-05-15T06:29:03.227Z,33.43
2019-05-15T06:31:43.979Z,33.63
2019-05-15T06:34:19.770Z,33.10
2019-05-15T06:36:54.595Z,33.60
2019-05-15T06:39:29.531Z,33.50
2019-05-15T06:42:04.426Z,33.63
2019-05-15T06:44:39.398Z,33.13
2019-05-15T06:47:14.179Z,33.93
2019-05-15T06:49:49.010Z,33.33
2019-05-15T06:52:23.779Z,34.50
2019-05-15T06:54:59.225Z,33.27
2019-05-15T06:57:34.355Z,33.70
2019-05-15T07:00:09.685Z,33.13
2019-05-15T07:02:44.410Z,32.80
2019-05-15T07:05:19.495Z,33.57
2019-05-15T07:07:54.414Z,32.87
2019-05-15T07:10:29.314Z,32.67
2019-05-15T07:13:04.226Z,33.90
2019-05-15T07:15:39.043Z,34.33
2019-05-15T07:18:13.940Z,32.23
2019-05-15T07:20:49.238Z,32.73
2019-05-15T07:23:27.212Z,31.77
2019-05-15T07:26:00.711Z,33.03
2019-05-15T07:28:37.836Z,32.87
2019-05-15T07:31:12.135Z,32.37
2019-05-15T07:33:49.100Z,32.23
2019-05-15T07:36:24.132Z,33.03
2019-05-15T07:38:58.968Z,31.63
2019-05-15T07:41:33.708Z,32.80
2019-05-15T07:44:08.604Z,32.53
2019-05-15T07:46:43.402Z,31.87
2019-05-15T07:49:18.342Z,32.37
2019-05-15T07:51:53.211Z,32.03
2019-05-15T07:54:28.850Z,32.87
2019-05-15T07:57:03.730Z,33.43
2019-05-15T07:59:38.737Z,32.23
2019-05-15T08:02:13.637Z,32.40
2019-05-15T08:04:48.531Z,32.07
2019-05-15T08:07:23.296Z,32.43
2019-05-15T08:09:59.035Z,33.50
2019-05-15T08:12:34.359Z,33.90
2019-05-15T08:15:10.564Z,33.10
2019-05-15T08:18:00.325Z,33.47
2019-05-15T08:20:22.327Z,33.60
2019-05-15T08:22:58.195Z,33.13
2019-05-15T08:25:35.493Z,34.03
2019-05-15T08:28:09.876Z,33.27
2019-05-15T08:30:44.630Z,34.57
2019-05-15T08:33:19.549Z,33.47
2019-05-15T08:35:54.426Z,32.93
2019-05-15T08:38:29.159Z,32.77
2019-05-15T08:41:04.049Z,32.87
2019-05-15T08:43:38.875Z,32.30
2019-05-15T08:46:13.716Z,33.73
2019-05-15T08:48:49.087Z,32.90
2019-05-15T08:51:25.086Z,33.27
2019-05-15T08:53:59.855Z,32.97
2019-05-15T08:56:34.595Z,32.63
2019-05-15T08:59:09.532Z,33.63
2019-05-15T09:01:44.267Z,32.63
2019-05-15T09:04:30.671Z,32.43
2019-05-15T09:07:01.015Z,33.50
2019-05-15T09:09:33.315Z,33.00
2019-05-15T09:12:08.430Z,32.90
2019-05-15T09:14:43.248Z,33.10
2019-05-15T09:17:18.251Z,32.67
2019-05-15T09:19:56.027Z,32.83
2019-05-15T09:22:29.735Z,32.97
2019-05-15T09:25:04.659Z,33.53
2019-05-15T09:27:39.494Z,33.00
2019-05-15T09:30:14.694Z,32.97
2019-05-15T09:32:49.428Z,33.70
2019-05-15T09:35:24.317Z,31.87
2019-05-15T09:37:59.093Z,33.07
2019-05-15T09:40:43.282Z,33.77
2019-05-15T09:43:11.380Z,32.33
2019-05-15T09:45:48.952Z,33.27
2019-05-15T09:48:22.911Z,32.60
2019-05-15T09:50:58.773Z,33.23
2019-05-15T09:53:33.839Z,32.47
2019-05-15T09:56:08.747Z,32.63
2019-05-15T09:58:43.567Z,32.03
2019-05-15T10:01:19.639Z,32.33
2019-05-15T10:03:54.900Z,32.70
2019-05-15T10:06:29.657Z,32.23
2019-05-15T10:09:09.021Z,32.67
2019-05-15T10:11:44.115Z,33.10
2019-05-15T10:14:19.492Z,32.73
2019-05-15T10:16:54.569Z,33.20
2019-05-15T10:19:30.274Z,33.03
2019-05-15T10:22:05.251Z,32.80
2019-05-15T10:24:40.084Z,31.90
2019-05-15T10:27:14.987Z,32.20
2019-05-15T10:29:49.738Z,33.07
2019-05-15T10:32:24.656Z,32.77
2019-05-15T10:34:59.787Z,32.60
2019-05-15T10:37:34.555Z,32.50
2019-05-15T10:40:10.883Z,32.67
2019-05-15T10:42:45.858Z,32.73
2019-05-15T10:45:20.974Z,32.97
2019-05-15T10:47:58.410Z,33.33
2019-05-15T10:50:32.386Z,32.87
2019-05-15T10:53:10.960Z,32.97
2019-05-15T10:55:43.799Z,32.90
2019-05-15T10:58:21.978Z,33.20
2019-05-15T11:00:55.183Z,34.20
2019-05-15T11:03:30.030Z,34.27
2019-05-15T11:06:05.002Z,33.97
2019-05-15T11:08:40.836Z,33.27
2019-05-15T11:11:18.195Z,33.57
2019-05-15T11:13:52.431Z,32.97
2019-05-15T11:16:28.246Z,33.37
2019-05-15T11:19:03.163Z,33.43
2019-05-15T11:21:38.891Z,33.35
2019-05-15T11:24:13.696Z,33.50
2019-05-15T11:26:49.991Z,33.07
2019-05-15T11:29:24.980Z,33.10
2019-05-15T11:31:59.847Z,32.73
2019-05-15T11:34:34.734Z,32.53
2019-05-15T11:37:09.632Z,33.73
2019-05-15T11:39:46.415Z,32.67
2019-05-15T11:42:21.028Z,32.63
2019-05-15T11:44:58.314Z,33.43
2019-05-15T11:47:32.355Z,32.67
2019-05-15T11:50:08.388Z,33.37
2019-05-15T11:52:43.536Z,33.50
2019-05-15T11:55:19.060Z,33.00
2019-05-15T11:57:55.711Z,33.20
2019-05-15T12:00:30.506Z,33.40
2019-05-15T12:03:05.408Z,33.90
2019-05-15T12:05:40.326Z,33.15
2019-05-15T12:08:15.212Z,32.87
2019-05-15T12:10:50.023Z,33.37
2019-05-15T12:13:24.915Z,32.63
2019-05-15T12:15:59.764Z,33.57
2019-05-15T12:18:34.587Z,33.43
2019-05-15T12:21:09.439Z,33.33
2019-05-15T12:23:44.267Z,32.93
2019-05-15T12:26:19.193Z,32.33
2019-05-15T12:28:54.000Z,32.93
2019-05-15T12:31:28.962Z,33.50
2019-05-15T12:34:03.928Z,34.40
2019-05-15T12:39:20.811Z,34.00
2019-05-15T13:00:10.436Z,33.70
2019-05-15T13:02:45.236Z,33.63
2019-05-15T13:05:20.140Z,34.03
2019-05-15T13:07:54.915Z,33.40
2019-05-15T13:10:30.904Z,33.50
2019-05-15T13:13:08.506Z,33.50
2019-05-15T13:15:42.399Z,34.33
2019-05-15T13:18:17.986Z,33.13
2019-05-15T13:20:55.785Z,33.80
2019-05-15T13:23:29.381Z,32.83
2019-05-15T13:26:04.543Z,33.58
2019-05-15T13:28:39.471Z,33.87
2019-05-15T13:31:14.311Z,33.80
2019-05-15T13:33:52.070Z,33.23
2019-05-15T13:36:28.767Z,33.35
2019-05-15T13:39:05.414Z,33.08
2019-05-15T13:41:40.225Z,34.65
2019-05-15T13:44:15.131Z,33.97
2019-05-15T13:46:52.958Z,34.45
2019-05-15T13:49:29.169Z,34.47
2019-05-15T13:52:04.224Z,34.87
2019-05-15T13:54:39.360Z,33.35
2019-05-15T13:57:14.402Z,33.95
2019-05-15T13:59:49.232Z,34.13
2019-05-15T14:02:24.074Z,33.87
2019-05-15T14:04:58.911Z,33.70
2019-05-15T14:07:46.008Z,33.70
2019-05-15T14:10:11.096Z,33.48
2019-05-15T14:12:47.882Z,33.92
2019-05-15T14:15:22.591Z,33.80
2019-05-15T14:17:57.804Z,34.00
2019-05-15T14:20:32.688Z,33.65
2019-05-15T14:23:08.625Z,33.28
2019-05-15T14:25:44.199Z,33.83
2019-05-15T14:28:19.093Z,33.95
2019-05-15T14:30:53.858Z,33.05
2019-05-15T14:33:29.330Z,33.90
2019-05-15T14:36:04.986Z,33.42
2019-05-15T14:38:39.863Z,33.73
2019-05-15T14:41:21.705Z,33.75
2019-05-15T14:44:14.616Z,34.00
2019-05-15T14:46:39.930Z,34.58
2019-05-15T14:49:21.498Z,34.50
2019-05-15T14:52:07.658Z,33.87
2019-05-15T14:54:38.468Z,34.45
2019-05-15T14:57:18.253Z,34.23
2019-05-15T14:59:59.727Z,34.45
2019-05-15T15:02:35.256Z,33.60
2019-05-15T15:05:10.292Z,34.05
2019-05-15T15:07:51.937Z,33.78
2019-05-15T15:10:29.055Z,33.75
2019-05-15T15:13:03.373Z,33.98
2019-05-15T15:15:38.706Z,34.10
2019-05-15T15:18:18.528Z,33.33
2019-05-15T15:20:59.484Z,33.45
2019-05-15T15:23:34.413Z,33.92
2019-05-15T15:26:09.327Z,34.05
2019-05-15T15:28:44.138Z,34.30
2019-05-15T15:31:19.950Z,34.53
2019-05-15T15:33:54.947Z,34.18
2019-05-15T15:36:29.805Z,33.80
2019-05-15T15:39:08.321Z,34.10
2019-05-15T15:41:43.204Z,33.88
2019-05-15T15:44:18.107Z,34.58
2019-05-15T15:46:53.302Z,34.30
2019-05-15T15:49:28.226Z,33.85
2019-05-15T15:52:03.027Z,33.42
2019-05-15T15:54:39.543Z,34.25
2019-05-15T15:57:14.776Z,34.05
2019-05-15T15:59:49.606Z,33.78
2019-05-15T16:02:33.254Z,34.83
2019-05-15T16:05:19.064Z,35.35
2019-05-15T16:07:59.735Z,33.75
2019-05-15T16:10:37.754Z,33.75
2019-05-15T16:13:12.187Z,34.38
2019-05-15T16:15:48.763Z,35.08
2019-05-15T16:18:23.695Z,34.83
2019-05-15T16:20:58.547Z,33.45
2019-05-15T16:23:33.278Z,33.88
2019-05-15T16:26:09.314Z,34.38
2019-05-15T16:28:45.328Z,33.78
2019-05-15T16:31:27.868Z,33.88
2019-05-15T16:34:08.362Z,34.08
2019-05-15T16:36:43.919Z,34.15
2019-05-15T16:39:18.998Z,34.40
2019-05-15T16:41:53.899Z,34.05
2019-05-15T16:44:29.107Z,34.00
2019-05-15T16:47:04.130Z,33.90
2019-05-15T16:49:39.218Z,34.85
2019-05-15T16:52:14.132Z,34.48
2019-05-15T16:54:49.252Z,34.27
2019-05-15T16:57:23.998Z,34.65
2019-05-15T16:59:58.787Z,34.08
2019-05-15T17:02:33.625Z,34.18
2019-05-15T17:05:09.511Z,33.90
2019-05-15T17:07:44.406Z,33.85
2019-05-15T17:10:43.840Z,33.80
2019-05-15T17:13:28.746Z,34.18
2019-05-15T17:16:10.964Z,33.23
2019-05-15T17:18:52.560Z,33.67
2019-05-15T17:21:36.515Z,33.78
2019-05-15T17:24:16.320Z,33.67
2019-05-15T17:27:01.195Z,34.10
2019-05-15T17:29:38.555Z,33.75
2019-05-15T17:32:49.199Z,34.60
2019-05-15T17:35:30.031Z,34.43
2019-05-15T17:38:05.277Z,34.08
2019-05-15T17:40:40.495Z,34.13
2019-05-15T17:43:28.298Z,34.15
2019-05-15T17:46:18.403Z,33.35
2019-05-15T17:49:06.930Z,35.52
2019-05-15T17:51:34.242Z,34.67
2019-05-15T17:54:09.524Z,35.55
2019-05-15T17:56:48.798Z,35.43
2019-05-15T17:59:25.131Z,36.42
2019-05-15T18:02:03.634Z,34.92
2019-05-15T18:04:58.815Z,36.13
2019-05-15T18:07:34.115Z,34.23
2019-05-15T18:10:34.444Z,34.88
2019-05-15T18:13:10.579Z,34.38
2019-05-15T18:16:04.840Z,36.53
2019-05-15T18:18:40.148Z,33.98
2019-05-15T18:21:15.234Z,35.30
2019-05-15T18:23:52.314Z,36.33
2019-05-15T18:26:28.869Z,35.15
2019-05-15T18:32:23.829Z,35.33
2019-05-15T18:34:59.366Z,34.33
2019-05-15T18:37:35.016Z,34.38
2019-05-15T18:40:13.339Z,34.73
2019-05-15T18:43:10.137Z,35.30
2019-05-15T18:46:28.853Z,34.08
2019-05-15T18:49:09.316Z,34.50
2019-05-15T18:51:47.868Z,35.15
2019-05-15T18:54:23.376Z,34.40
2019-05-15T18:57:03.862Z,34.43
2019-05-15T18:59:40.908Z,34.27
2019-05-15T19:02:20.931Z,33.92
2019-05-15T19:04:55.735Z,33.92
2019-05-15T19:07:42.729Z,34.05
2019-05-15T19:10:20.608Z,34.57
2019-05-15T19:12:57.888Z,34.10
2019-05-15T19:15:31.935Z,33.73
2019-05-15T19:18:07.995Z,34.40
2019-05-15T19:20:43.152Z,34.20
2019-05-15T19:23:18.178Z,33.90
2019-05-15T19:25:53.022Z,33.75
2019-05-15T19:28:28.542Z,34.27
2019-05-15T19:31:03.843Z,34.18
2019-05-15T19:33:41.215Z,48.05
2019-05-15T19:36:15.248Z,38.98
2019-05-15T19:38:50.118Z,35.43
2019-05-15T19:41:24.942Z,33.35
2019-05-15T19:43:59.823Z,33.70
2019-05-15T19:46:34.555Z,33.75
2019-05-15T19:49:09.440Z,33.85
2019-05-15T19:51:44.218Z,33.90
2019-05-15T19:57:09.727Z,36.15
2019-05-15T19:59:44.917Z,34.33
2019-05-15T20:02:41.127Z,33.75
2019-05-15T20:05:18.296Z,33.80
2019-05-15T20:07:53.358Z,33.38
2019-05-15T20:10:29.316Z,33.98
2019-05-15T20:13:05.735Z,33.70
2019-05-15T20:15:40.751Z,33.90
2019-05-15T20:18:15.674Z,33.70
2019-05-15T20:20:50.601Z,33.48
2019-05-15T20:23:25.683Z,33.63
2019-05-15T20:26:00.759Z,33.05
2019-05-15T20:28:35.854Z,33.75
2019-05-15T20:31:10.947Z,33.60
2019-05-15T20:33:48.229Z,33.53
2019-05-15T20:36:22.642Z,34.40
2019-05-15T20:38:58.765Z,33.63
2019-05-15T20:41:35.112Z,33.90
2019-05-15T20:44:10.083Z,33.70
2019-05-15T20:46:50.052Z,33.60
2019-05-15T20:49:22.503Z,33.47
2019-05-15T20:51:58.249Z,33.33
2019-05-15T20:54:33.267Z,33.73
2019-05-15T20:57:08.841Z,34.00
2019-05-15T20:59:43.790Z,33.50
2019-05-15T21:02:18.936Z,33.50
2019-05-15T21:04:53.727Z,34.00
2019-05-15T21:07:38.157Z,33.23
2019-05-15T21:10:08.510Z,34.07
2019-05-15T21:12:42.911Z,32.83
2019-05-15T21:15:21.479Z,33.13
2019-05-15T21:17:58.493Z,32.83
2019-05-15T21:20:31.651Z,33.33
2019-05-15T21:23:08.917Z,33.20
2019-05-15T21:25:42.947Z,33.03
2019-05-15T21:28:17.813Z,33.27
2019-05-15T21:30:52.543Z,33.00
2019-05-15T21:33:27.423Z,33.20
2019-05-15T21:36:02.223Z,32.93
2019-05-15T21:38:40.003Z,32.83
2019-05-15T21:41:15.414Z,32.53
2019-05-15T21:43:50.528Z,32.33
2019-05-15T21:46:25.442Z,33.07
2019-05-15T21:49:00.818Z,33.17
2019-05-15T21:51:38.409Z,33.77
2019-05-15T21:54:13.432Z,33.63
2019-05-15T21:56:50.498Z,33.67
2019-05-15T21:59:24.990Z,32.90
2019-05-15T22:02:00.105Z,32.57
2019-05-15T22:04:49.069Z,32.93
2019-05-15T22:07:11.627Z,33.00
2019-05-15T22:09:48.598Z,32.93
2019-05-15T22:12:23.047Z,32.83
2019-05-15T22:14:58.179Z,32.73
2019-05-15T22:17:33.295Z,33.33
2019-05-15T22:20:09.007Z,32.63
2019-05-15T22:22:43.739Z,32.63
2019-05-15T22:25:19.185Z,32.53
2019-05-15T22:27:54.230Z,32.73
2019-05-15T22:30:30.360Z,32.40
2019-05-15T22:33:05.388Z,32.53
2019-05-15T22:35:40.153Z,32.43
2019-05-15T22:38:18.102Z,32.77
2019-05-15T22:40:53.247Z,32.53
2019-05-15T22:43:28.782Z,32.27
2019-05-15T22:46:03.811Z,32.47
2019-05-15T22:48:38.614Z,32.40
2019-05-15T22:51:13.368Z,32.60
2019-05-15T22:53:48.833Z,32.07
2019-05-15T22:56:24.966Z,33.27
2019-05-15T22:58:59.874Z,32.60
2019-05-15T23:01:35.451Z,32.83
2019-05-15T23:04:10.382Z,32.13
2019-05-15T23:06:45.210Z,32.43
2019-05-15T23:09:19.963Z,32.27
2019-05-15T23:11:54.707Z,32.10
2019-05-15T23:14:29.723Z,32.10
2019-05-15T23:17:04.650Z,33.13
2019-05-15T23:19:39.444Z,33.77
2019-05-15T23:22:14.347Z,32.73
2019-05-15T23:24:49.150Z,32.73
2019-05-15T23:27:23.899Z,33.07
2019-05-15T23:29:58.650Z,33.20
2019-05-15T23:32:33.546Z,32.60
2019-05-15T23:35:08.367Z,33.07
2019-05-15T23:37:43.127Z,32.23
2019-05-15T23:40:18.132Z,32.97
2019-05-15T23:42:53.059Z,32.90
2019-05-15T23:45:28.910Z,32.47
2019-05-15T23:48:03.879Z,33.03
2019-05-15T23:50:38.898Z,32.70
2019-05-15T23:53:16.257Z,32.80
2019-05-15T23:55:50.151Z,32.43
2019-05-15T23:58:24.894Z,32.13
